createdAt,value
2016-07-17T00:02:04.826Z,17.1
2016-07-17T00:07:04.925Z,17.1
2016-07-17T00:12:04.623Z,17.2
2016-07-17T00:17:06.424Z,17.1
2016-07-17T00:22:04.090Z,17.3
2016-07-17T00:27:05.555Z,17.3
2016-07-17T00:32:05.438Z,17.3
2016-07-17T00:37:04.557Z,17.3
2016-07-17T00:42:04.372Z,17.4
2016-07-17T00:47:05.136Z,17.4
2016-07-17T00:52:04.932Z,17.4
2016-07-17T00:57:05.232Z,17.5
2016-07-17T01:02:05.758Z,17.5
2016-07-17T01:07:04.972Z,17.5
2016-07-17T01:12:04.436Z,17.4
2016-07-17T01:17:06.278Z,17.4
2016-07-17T01:22:05.316Z,17.4
2016-07-17T01:27:04.933Z,17.4
2016-07-17T01:32:05.157Z,17.4
2016-07-17T01:37:04.476Z,17.4
2016-07-17T01:42:04.959Z,17.3
2016-07-17T01:47:05.660Z,17.4
2016-07-17T01:52:04.510Z,17.4
2016-07-17T01:57:04.090Z,17.4
2016-07-17T02:02:06.080Z,17.4
2016-07-17T02:07:05.087Z,17.4
2016-07-17T02:12:04.623Z,17.4
2016-07-17T02:17:07.162Z,17.3
2016-07-17T02:22:05.501Z,17.3
2016-07-17T02:27:05.589Z,17.3
2016-07-17T02:32:04.529Z,17.1
2016-07-17T02:37:05.379Z,16.7
2016-07-17T02:42:05.412Z,16.7
2016-07-17T02:47:04.570Z,16.6
2016-07-17T02:52:05.320Z,16.7
2016-07-17T02:57:04.379Z,16.6
2016-07-17T03:02:15.090Z,16.6
2016-07-17T03:07:05.483Z,16.6
2016-07-17T03:12:04.425Z,16.4
2016-07-17T03:17:20.696Z,16.3
2016-07-17T03:22:05.564Z,16.3
2016-07-17T03:27:03.953Z,16.3
2016-07-17T03:32:22.622Z,16.1
2016-07-17T03:37:06.626Z,16.1
2016-07-17T03:42:05.790Z,15.9
2016-07-17T03:47:15.562Z,15.9
2016-07-17T03:52:07.037Z,15.9
2016-07-17T03:57:08.125Z,15.9
2016-07-17T04:02:19.644Z,15.8
2016-07-17T04:07:06.015Z,15.7
2016-07-17T04:12:05.231Z,15.8
2016-07-17T04:17:20.567Z,15.9
2016-07-17T04:22:04.896Z,15.9
2016-07-17T04:27:05.092Z,15.9
2016-07-17T04:32:18.187Z,15.9
2016-07-17T04:37:06.128Z,15.7
2016-07-17T04:42:04.524Z,15.7
2016-07-17T04:47:18.549Z,15.9
2016-07-17T04:52:04.460Z,16.2
2016-07-17T04:57:05.171Z,16.5
2016-07-17T05:02:19.238Z,16.4
2016-07-17T05:07:05.353Z,17.0
2016-07-17T05:12:04.757Z,17.3
2016-07-17T05:17:21.007Z,17.6
2016-07-17T05:22:04.799Z,17.9
2016-07-17T05:27:05.055Z,17.9
2016-07-17T05:32:18.901Z,18.4
2016-07-17T05:37:04.675Z,18.7
2016-07-17T05:42:03.737Z,18.9
2016-07-17T05:47:19.246Z,18.9
2016-07-17T05:52:04.843Z,19.1
2016-07-17T05:57:05.412Z,19.4
2016-07-17T06:02:23.218Z,19.4
2016-07-17T06:07:05.390Z,20.1
2016-07-17T06:12:04.293Z,20.5
2016-07-17T06:17:20.660Z,20.4
2016-07-17T06:22:04.256Z,21.0
2016-07-17T06:32:18.196Z,21.5
2016-07-17T06:37:05.070Z,21.8
2016-07-17T06:42:04.005Z,22.0
2016-07-17T06:47:18.385Z,22.3
2016-07-17T06:52:04.624Z,22.3
2016-07-17T06:57:04.219Z,22.9
2016-07-17T07:02:22.889Z,23.2
2016-07-17T07:07:03.977Z,23.2
2016-07-17T07:12:03.767Z,23.7
2016-07-17T07:17:26.421Z,23.9
2016-07-17T07:22:03.870Z,24.0
2016-07-17T07:27:05.334Z,24.6
2016-07-17T07:32:23.714Z,25.0
2016-07-17T07:37:04.657Z,25.0
2016-07-17T07:42:04.278Z,25.0
2016-07-17T07:47:23.822Z,25.1
2016-07-17T07:52:04.868Z,25.3
2016-07-17T07:57:03.867Z,25.7
2016-07-17T08:02:17.723Z,26.0
2016-07-17T08:07:11.381Z,26.5
2016-07-17T08:12:04.733Z,26.9
2016-07-17T08:17:21.298Z,27.2
2016-07-17T08:22:05.812Z,27.1
2016-07-17T08:27:04.568Z,27.5
2016-07-17T08:32:18.014Z,28.3
2016-07-17T08:37:04.909Z,28.9
2016-07-17T08:42:04.785Z,29.1
2016-07-17T08:47:22.479Z,29.2
2016-07-17T08:52:06.235Z,29.7
2016-07-17T08:57:07.196Z,29.6
2016-07-17T09:02:19.482Z,29.5
2016-07-17T09:07:06.270Z,29.9
2016-07-17T09:12:06.407Z,30.6
2016-07-17T09:17:21.595Z,30.6
2016-07-17T09:22:07.079Z,31.0
2016-07-17T09:27:06.641Z,31.2
2016-07-17T09:32:22.575Z,31.7
2016-07-17T09:37:06.795Z,31.7
2016-07-17T09:42:07.241Z,31.8
2016-07-17T09:47:31.705Z,31.2
2016-07-17T09:52:06.870Z,30.9
2016-07-17T09:57:07.357Z,30.8
2016-07-17T10:02:23.342Z,30.8
2016-07-17T10:07:08.041Z,32.3
2016-07-17T10:12:07.684Z,33.0
2016-07-17T10:17:20.139Z,33.0
2016-07-17T10:22:06.897Z,33.7
2016-07-17T10:27:07.552Z,33.5
2016-07-17T10:32:18.737Z,33.1
2016-07-17T10:37:08.877Z,33.3
2016-07-17T10:42:08.324Z,33.9
2016-07-17T10:47:17.988Z,33.9
2016-07-17T10:52:08.034Z,33.9
2016-07-17T10:57:08.962Z,33.8
2016-07-17T11:02:18.753Z,33.2
2016-07-17T11:07:08.946Z,33.3
2016-07-17T11:12:07.070Z,33.1
2016-07-17T11:17:20.884Z,32.6
2016-07-17T11:22:06.489Z,32.4
2016-07-17T11:27:07.494Z,32.7
2016-07-17T11:32:18.804Z,32.8
2016-07-17T11:37:07.233Z,32.8
2016-07-17T11:42:06.355Z,32.8
2016-07-17T11:47:20.845Z,32.7
2016-07-17T11:52:09.938Z,32.8
2016-07-17T11:57:11.143Z,33.5
2016-07-17T12:02:22.949Z,33.9
2016-07-17T12:07:07.856Z,33.9
2016-07-17T12:12:09.128Z,34.0
2016-07-17T12:17:20.579Z,34.2
2016-07-17T12:22:06.823Z,33.7
2016-07-17T12:27:07.606Z,33.7
2016-07-17T12:32:24.210Z,31.2
2016-07-17T12:37:07.889Z,31.3
2016-07-17T12:42:10.005Z,31.4
2016-07-17T12:47:20.664Z,33.0
2016-07-17T12:52:04.264Z,32.9
2016-07-17T12:57:06.508Z,33.9
2016-07-17T13:02:18.343Z,33.9
2016-07-17T13:07:07.499Z,34.3
2016-07-17T13:12:06.423Z,33.7
2016-07-17T13:17:25.663Z,33.0
2016-07-17T13:22:07.071Z,33.0
2016-07-17T13:27:07.508Z,32.0
2016-07-17T13:32:23.979Z,32.1
2016-07-17T13:37:07.353Z,32.7
2016-07-17T13:42:06.791Z,33.6
2016-07-17T13:47:22.141Z,34.2
2016-07-17T13:52:08.676Z,34.7
2016-07-17T13:57:06.414Z,34.7
2016-07-17T20:02:16.448Z,25.2
2016-07-17T20:07:05.213Z,24.6
2016-07-17T20:12:05.603Z,24.6
2016-07-17T20:17:13.619Z,24.1
2016-07-17T20:22:05.073Z,24.1
2016-07-17T20:27:05.232Z,23.9
2016-07-17T20:32:05.432Z,23.6
2016-07-17T20:37:04.240Z,23.2
2016-07-17T20:42:04.852Z,22.9
2016-07-17T20:47:05.164Z,22.9
2016-07-17T20:52:04.886Z,22.6
2016-07-17T20:57:05.267Z,22.4
2016-07-17T21:02:05.940Z,22.4
2016-07-17T21:07:04.738Z,22.3
2016-07-17T21:12:04.531Z,22.3
2016-07-17T21:17:07.532Z,22.2
2016-07-17T21:22:04.827Z,22.0
2016-07-17T21:27:05.337Z,21.9
2016-07-17T21:32:06.035Z,21.8
2016-07-17T21:37:05.576Z,21.7
2016-07-17T21:42:05.103Z,21.6
2016-07-17T21:47:05.284Z,21.4
2016-07-17T21:52:05.388Z,21.3
2016-07-17T21:57:05.446Z,21.3
2016-07-17T22:02:05.793Z,20.9
2016-07-17T22:07:05.513Z,20.8
2016-07-17T22:12:05.099Z,20.7
2016-07-17T22:17:07.203Z,20.7
2016-07-17T22:22:05.359Z,20.5
2016-07-17T22:27:05.419Z,20.4
2016-07-17T22:32:06.036Z,20.4
2016-07-17T22:37:05.170Z,20.3
2016-07-17T22:42:05.486Z,20.2
2016-07-17T22:47:04.894Z,20.2
2016-07-17T22:52:05.572Z,20.2
2016-07-17T22:57:04.922Z,20.0
2016-07-17T23:02:05.465Z,19.8
2016-07-17T23:07:05.454Z,19.6
2016-07-17T23:12:04.913Z,19.5
2016-07-17T23:17:07.237Z,19.4
2016-07-17T23:22:05.439Z,19.4
2016-07-17T23:27:05.066Z,19.3
2016-07-17T23:32:05.411Z,19.2
2016-07-17T23:37:04.936Z,19.2
2016-07-17T23:42:04.935Z,19.2
2016-07-17T23:47:05.562Z,19.1
2016-07-17T23:52:04.988Z,19.1
2016-07-17T23:57:04.956Z,19.0
